Roadside, Pennsylvania
Current Conditions -  °F | °C
As of 12:53 PM on Saturday 20 Dec 2014 (Local Time) from KRYT Reporting Station
Clear Clear  
Wind Chill: 32°   Ceiling: Unl
Heat Index: 32°   Visibility: 10mi
Dew Point: 19°   Wind: 0mph
Humidity: 59%   Direction: NA
Pressure: 30.22"   Gusts: NA
Location:  39.7777°N, 77.5693°W
Report Text: KRYT 201753Z AUTO 00000KT 10SM CLR 00/M07 A3022 RMK AO2 SLP250 T00001072 10000 21044 58015 $
Loading
Personal Weather Stations






























Interactive Weather Map New forecast layout! Learn more

10-Day Weather Forecast

Advertisements
Track Severe Weather on mobile